createdAt,value
2023-04-15T00:01:43.446Z,99421.69
2023-04-15T00:04:46.117Z,99422.06
2023-04-15T00:07:48.139Z,99402.44
2023-04-15T00:10:50.913Z,99413.03
2023-04-15T00:13:53.109Z,99418.41
2023-04-15T00:16:56.426Z,99415.94
2023-04-15T00:19:59.944Z,99425.94
2023-04-15T00:23:02.699Z,99424.16
2023-04-15T00:26:04.583Z,99419.13
2023-04-15T00:29:06.532Z,99417.09
2023-04-15T00:32:09.285Z,99416.53
2023-04-15T00:35:11.437Z,99419.56
2023-04-15T00:38:13.485Z,99421.00
2023-04-15T00:41:15.444Z,99415.91
2023-04-15T00:44:19.148Z,99414.13
2023-04-15T00:47:21.183Z,99411.78
2023-04-15T00:50:23.066Z,99401.84
2023-04-15T00:53:24.972Z,99408.06
2023-04-15T00:56:27.365Z,99408.31
2023-04-15T00:59:29.300Z,99410.38
2023-04-15T01:02:32.032Z,99409.97
2023-04-15T01:05:34.312Z,99404.50
2023-04-15T01:08:36.345Z,99401.03
2023-04-15T01:11:38.576Z,99392.34
2023-04-15T01:14:40.603Z,99399.81
2023-04-15T01:17:42.894Z,99389.03
2023-04-15T01:20:44.880Z,99396.59
2023-04-15T01:23:47.268Z,99393.28
2023-04-15T01:26:50.362Z,99392.03
2023-04-15T01:29:52.898Z,99378.47
2023-04-15T01:32:55.000Z,99383.66
2023-04-15T01:35:57.331Z,99399.50
2023-04-15T01:38:59.369Z,99402.03
2023-04-15T01:42:01.617Z,99405.22
2023-04-15T01:45:03.857Z,99404.97
2023-04-15T01:48:06.015Z,99396.63
2023-04-15T01:51:08.310Z,99405.72
2023-04-15T01:54:10.162Z,99406.63
2023-04-15T01:57:12.240Z,99406.09
2023-04-15T02:00:14.243Z,99404.84
2023-04-15T02:03:16.181Z,99412.34
2023-04-15T02:06:18.431Z,99404.84
2023-04-15T02:09:20.551Z,99395.75
2023-04-15T02:12:22.421Z,99401.94
2023-04-15T02:15:24.277Z,99420.25
2023-04-15T02:18:26.513Z,99397.69
2023-04-15T02:21:28.480Z,99411.25
2023-04-15T02:24:30.727Z,99413.22
2023-04-15T02:27:32.862Z,99410.44
2023-04-15T02:30:34.741Z,99407.91
2023-04-15T02:33:37.872Z,99410.66
2023-04-15T02:36:40.689Z,99423.06
2023-04-15T02:39:42.527Z,99429.78
2023-04-15T02:42:44.661Z,99426.72
2023-04-15T02:45:47.320Z,99424.50
2023-04-15T02:48:49.791Z,99418.31
2023-04-15T02:51:51.670Z,99408.59
2023-04-15T02:54:57.512Z,99424.84
2023-04-15T02:58:00.791Z,99412.50
2023-04-15T03:01:03.093Z,99414.97
2023-04-15T03:04:05.116Z,99414.25
2023-04-15T03:07:07.021Z,99409.59
2023-04-15T03:10:09.089Z,99412.56
2023-04-15T03:13:10.998Z,99412.00
2023-04-15T03:16:12.871Z,99408.72
2023-04-15T03:19:14.929Z,99397.66
2023-04-15T03:22:16.791Z,99402.91
2023-04-15T03:25:18.595Z,99399.06
2023-04-15T03:28:20.578Z,99402.06
2023-04-15T03:31:22.512Z,99403.47
2023-04-15T03:34:24.378Z,99394.47
2023-04-15T03:37:26.348Z,99406.50
2023-04-15T03:40:28.184Z,99408.25
2023-04-15T03:43:30.233Z,99410.00
2023-04-15T03:46:32.240Z,99413.28
2023-04-15T03:49:34.152Z,99417.66
2023-04-15T03:52:36.279Z,99415.97
2023-04-15T03:55:38.140Z,99404.44
2023-04-15T03:58:40.003Z,99410.34
2023-04-15T04:01:41.830Z,99408.53
2023-04-15T04:04:43.911Z,99401.91
2023-04-15T04:07:45.837Z,99398.06
2023-04-15T04:10:47.995Z,99398.97
2023-04-15T04:13:49.777Z,99399.78
2023-04-15T04:16:51.640Z,99400.75
2023-04-15T04:19:53.503Z,99407.84
2023-04-15T04:22:55.582Z,99404.28
2023-04-15T04:25:57.794Z,99409.06
2023-04-15T04:28:59.877Z,99409.31
2023-04-15T04:32:01.996Z,99408.25
2023-04-15T04:35:04.283Z,99402.19
2023-04-15T04:38:06.331Z,99396.38
2023-04-15T04:41:08.272Z,99398.19
2023-04-15T04:44:10.154Z,99396.44
2023-04-15T04:47:12.062Z,99393.88
2023-04-15T04:50:13.988Z,99392.97
2023-04-15T04:53:16.385Z,99392.63
2023-04-15T04:56:18.234Z,99390.00
2023-04-15T04:59:20.076Z,99405.00
2023-04-15T05:02:22.073Z,99387.75
2023-04-15T05:05:24.023Z,99389.88
2023-04-15T05:08:26.217Z,99398.19
2023-04-15T05:11:28.424Z,99373.84
2023-04-15T05:14:30.647Z,99397.47
2023-04-15T05:17:33.368Z,99380.16
2023-04-15T05:20:35.493Z,99397.16
2023-04-15T05:23:37.912Z,99408.88
2023-04-15T05:26:39.828Z,99408.72
2023-04-15T05:29:41.833Z,99405.00
2023-04-15T05:32:43.744Z,99387.75
2023-04-15T05:35:45.668Z,99410.84
2023-04-15T05:38:47.476Z,99407.78
2023-04-15T05:41:49.407Z,99408.47
2023-04-15T05:44:51.337Z,99390.94
2023-04-15T05:47:54.438Z,99409.59
2023-04-15T05:50:56.681Z,99416.34
2023-04-15T05:53:58.547Z,99426.19
2023-04-15T05:57:01.040Z,99415.88
2023-04-15T06:00:03.660Z,99413.56
2023-04-15T06:03:06.462Z,99424.53
2023-04-15T06:06:08.838Z,99436.37
2023-04-15T06:09:11.288Z,99433.84
2023-04-15T06:12:13.330Z,99438.28
2023-04-15T06:15:15.466Z,99432.56
2023-04-15T06:18:17.314Z,99438.91
2023-04-15T06:21:19.255Z,99447.75
2023-04-15T06:24:21.556Z,99442.31
2023-04-15T06:27:23.810Z,99446.56
2023-04-15T06:30:25.942Z,99456.28
2023-04-15T06:33:28.234Z,99437.03
2023-04-15T06:36:30.471Z,99459.94
2023-04-15T06:39:32.683Z,99440.31
2023-04-15T06:42:34.615Z,99454.09
2023-04-15T06:45:36.458Z,99444.37
2023-04-15T06:48:38.439Z,99445.22
2023-04-15T06:51:40.326Z,99449.34
2023-04-15T06:54:42.668Z,99458.78
2023-04-15T06:57:44.573Z,99458.75
2023-04-15T07:00:46.541Z,99458.88
2023-04-15T07:03:48.523Z,99454.47
2023-04-15T07:06:50.780Z,99449.34
2023-04-15T07:09:53.765Z,99457.63
2023-04-15T07:12:55.980Z,99453.78
2023-04-15T07:15:57.963Z,99454.19
2023-04-15T07:19:00.006Z,99460.06
2023-04-15T07:22:02.298Z,99459.63
2023-04-15T07:25:04.542Z,99451.87
2023-04-15T07:28:08.061Z,99455.81
2023-04-15T07:31:10.076Z,99445.37
2023-04-15T07:34:11.936Z,99451.16
2023-04-15T07:37:13.868Z,99460.37
2023-04-15T07:40:16.294Z,99462.97
2023-04-15T07:43:18.905Z,99454.34
2023-04-15T07:46:20.808Z,99448.19
2023-04-15T07:49:22.976Z,99456.75
2023-04-15T07:52:24.913Z,99445.75
2023-04-15T07:55:28.215Z,99455.16
2023-04-15T07:58:30.552Z,99449.03
2023-04-15T08:01:33.130Z,99447.50
2023-04-15T08:04:35.314Z,99449.69
2023-04-15T08:07:38.021Z,99452.66
2023-04-15T08:10:39.902Z,99450.38
2023-04-15T08:13:41.836Z,99447.22
2023-04-15T08:16:43.902Z,99460.13
2023-04-15T08:19:46.086Z,99466.56
2023-04-15T08:22:51.827Z,99470.94
2023-04-15T08:25:53.700Z,99461.72
2023-04-15T08:28:55.638Z,99478.22
2023-04-15T08:31:57.667Z,99470.19
2023-04-15T08:34:59.554Z,99466.13
2023-04-15T08:38:01.515Z,99467.81
2023-04-15T08:41:08.114Z,99470.06
2023-04-15T08:44:09.928Z,99478.66
2023-04-15T08:47:13.386Z,99474.69
2023-04-15T08:50:15.360Z,99479.91
2023-04-15T08:53:17.377Z,99482.37
2023-04-15T08:56:19.429Z,99477.94
2023-04-15T08:59:22.026Z,99471.50
2023-04-15T09:02:24.535Z,99468.63
2023-04-15T09:05:26.581Z,99475.50
2023-04-15T09:08:28.439Z,99479.22
2023-04-15T09:11:31.493Z,99467.53
2023-04-15T09:14:34.098Z,99475.66
2023-04-15T09:17:36.098Z,99465.47
2023-04-15T09:20:44.799Z,99464.62
2023-04-15T09:23:57.700Z,99494.09
2023-04-15T09:26:59.563Z,99483.59
2023-04-15T09:30:02.238Z,99480.41
2023-04-15T09:33:08.783Z,99482.09
2023-04-15T09:36:10.879Z,99481.56
2023-04-15T09:39:12.910Z,99489.59
2023-04-15T09:42:14.839Z,99486.19
2023-04-15T09:45:16.780Z,99485.28
2023-04-15T09:48:28.906Z,99483.69
2023-04-15T09:51:37.447Z,99479.12
2023-04-15T09:54:39.429Z,99486.72
2023-04-15T09:57:41.762Z,99467.84
2023-04-15T10:00:43.983Z,99477.34
2023-04-15T10:03:46.383Z,99491.19
2023-04-15T10:06:48.416Z,99490.69
2023-04-15T10:09:50.353Z,99500.22
2023-04-15T10:12:52.452Z,99504.47
2023-04-15T10:16:01.338Z,99517.53
2023-04-15T10:19:04.532Z,99507.50
2023-04-15T10:22:06.629Z,99504.03
2023-04-15T10:25:09.144Z,99501.22
2023-04-15T10:28:11.138Z,99518.88
2023-04-15T10:31:13.825Z,99513.44
2023-04-15T10:34:16.107Z,99517.03
2023-04-15T10:37:37.474Z,99514.31
2023-04-15T10:40:39.539Z,99516.00
2023-04-15T10:43:59.674Z,99505.53
2023-04-15T10:47:01.772Z,99511.84
2023-04-15T10:50:03.842Z,99523.06
2023-04-15T10:53:05.924Z,99518.84
2023-04-15T10:56:07.921Z,99515.59
2023-04-15T10:59:09.821Z,99532.12
2023-04-15T11:02:12.794Z,99533.12
2023-04-15T11:05:15.662Z,99533.94
2023-04-15T11:08:17.695Z,99558.69
2023-04-15T11:11:19.594Z,99543.72
2023-04-15T11:14:22.130Z,99539.75
2023-04-15T11:17:27.936Z,99552.06
2023-04-15T11:20:29.836Z,99554.69
2023-04-15T11:23:37.916Z,99536.25
2023-04-15T11:26:40.089Z,99547.47
2023-04-15T11:29:42.011Z,99542.63
2023-04-15T11:32:44.257Z,99536.50
2023-04-15T11:35:46.235Z,99534.91
2023-04-15T11:38:48.168Z,99530.66
2023-04-15T11:41:50.095Z,99528.34
2023-04-15T11:44:54.766Z,99529.13
2023-04-15T11:47:58.452Z,99527.47
2023-04-15T11:51:01.286Z,99544.88
2023-04-15T11:54:03.970Z,99542.66
2023-04-15T11:57:06.273Z,99543.66
2023-04-15T12:00:09.728Z,99549.06
2023-04-15T12:03:17.931Z,99551.31
2023-04-15T12:06:20.599Z,99548.81
2023-04-15T12:09:22.577Z,99555.47
2023-04-15T12:12:28.522Z,99541.63
2023-04-15T12:15:30.439Z,99536.84
2023-04-15T12:18:32.361Z,99551.75
2023-04-15T12:21:35.528Z,99532.91
2023-04-15T12:24:37.873Z,99547.94
2023-04-15T12:27:39.737Z,99552.03
2023-04-15T12:30:51.613Z,99549.19
2023-04-15T12:33:56.919Z,99549.66
2023-04-15T12:36:59.675Z,99536.91
2023-04-15T12:40:01.550Z,99559.66
2023-04-15T12:43:03.361Z,99548.69
2023-04-15T12:46:05.302Z,99553.31
2023-04-15T12:49:08.080Z,99560.78
2023-04-15T12:52:10.120Z,99567.56
2023-04-15T12:55:12.318Z,99567.37
2023-04-15T12:58:14.201Z,99568.94
2023-04-15T13:01:16.014Z,99570.03
2023-04-15T13:04:18.121Z,99577.25
2023-04-15T13:07:19.997Z,99583.59
2023-04-15T13:10:22.418Z,99576.00
2023-04-15T13:13:24.480Z,99574.13
2023-04-15T13:16:26.589Z,99572.97
2023-04-15T13:19:28.643Z,99569.25
2023-04-15T13:22:30.840Z,99586.31
2023-04-15T13:25:32.857Z,99584.31
2023-04-15T13:28:34.864Z,99580.88
2023-04-15T13:31:36.846Z,99582.63
2023-04-15T13:34:38.839Z,99575.75
2023-04-15T13:37:40.737Z,99580.59
2023-04-15T13:40:42.637Z,99576.22
2023-04-15T13:43:44.555Z,99580.47
2023-04-15T13:46:46.496Z,99570.78
2023-04-15T13:49:48.500Z,99583.25
2023-04-15T13:52:50.453Z,99568.19
2023-04-15T13:55:52.309Z,99571.72
2023-04-15T13:58:58.921Z,99596.19
2023-04-15T14:02:01.130Z,99597.66
2023-04-15T14:05:03.180Z,99596.56
2023-04-15T14:08:05.040Z,99594.81
2023-04-15T14:11:06.993Z,99598.59
2023-04-15T14:14:08.953Z,99594.78
2023-04-15T14:17:11.179Z,99599.88
2023-04-15T14:20:14.995Z,99594.19
2023-04-15T14:23:18.219Z,99595.59
2023-04-15T14:26:20.376Z,99590.37
2023-04-15T14:29:22.407Z,99612.34
2023-04-15T14:32:25.501Z,99619.44
2023-04-15T14:35:27.455Z,99615.88
2023-04-15T14:38:29.462Z,99621.06
2023-04-15T14:41:31.503Z,99619.28
2023-04-15T14:44:33.395Z,99617.66
2023-04-15T14:47:35.428Z,99611.94
2023-04-15T14:50:37.361Z,99619.97
2023-04-15T14:53:39.192Z,99631.66
2023-04-15T14:56:41.156Z,99636.22
2023-04-15T14:59:43.118Z,99631.97
2023-04-15T15:02:45.332Z,99624.84
2023-04-15T15:05:47.506Z,99633.50
2023-04-15T15:08:49.781Z,99620.37
2023-04-15T15:11:51.643Z,99629.09
2023-04-15T15:14:55.964Z,99633.09
2023-04-15T15:17:58.056Z,99635.66
2023-04-15T15:20:59.986Z,99644.91
2023-04-15T15:24:01.993Z,99638.94
2023-04-15T15:27:03.911Z,99648.38
2023-04-15T15:30:06.874Z,99648.00
2023-04-15T15:33:08.842Z,99647.72
2023-04-15T15:36:13.831Z,99658.59
2023-04-15T15:39:16.038Z,99660.16
2023-04-15T15:42:19.092Z,99663.47
2023-04-15T15:45:20.968Z,99678.22
2023-04-15T15:48:23.534Z,99674.81
2023-04-15T15:51:27.570Z,99677.59
2023-04-15T15:54:29.476Z,99687.16
2023-04-15T15:57:31.376Z,99691.81
2023-04-15T16:00:33.389Z,99705.88
2023-04-15T16:03:35.473Z,99706.63
2023-04-15T16:06:37.457Z,99702.50
2023-04-15T16:09:41.046Z,99699.16
2023-04-15T16:12:42.917Z,99714.91
2023-04-15T16:15:44.875Z,99712.47
2023-04-15T16:18:46.729Z,99718.56
2023-04-15T16:21:48.704Z,99720.00
2023-04-15T16:24:53.170Z,99714.94
2023-04-15T16:28:03.467Z,99716.63
2023-04-15T16:31:13.571Z,99715.81
2023-04-15T16:34:16.108Z,99714.78
2023-04-15T16:37:18.126Z,99716.19
2023-04-15T16:40:19.998Z,99719.63
2023-04-15T16:43:21.810Z,99709.34
2023-04-15T16:46:23.823Z,99722.56
2023-04-15T16:49:25.988Z,99729.28
2023-04-15T16:52:28.248Z,99713.03
2023-04-15T16:55:30.125Z,99723.03
2023-04-15T16:58:32.014Z,99743.53
2023-04-15T17:01:34.114Z,99751.19
2023-04-15T17:04:36.105Z,99759.88
2023-04-15T17:07:38.072Z,99764.72
2023-04-15T17:10:39.913Z,99758.75
2023-04-15T17:13:41.889Z,99765.37
2023-04-15T17:16:43.844Z,99770.28
2023-04-15T17:19:45.888Z,99770.06
2023-04-15T17:22:48.166Z,99765.88
2023-04-15T17:25:51.538Z,99779.56
2023-04-15T17:28:53.378Z,99773.94
2023-04-15T17:31:55.322Z,99796.69
2023-04-15T17:34:57.268Z,99787.87
2023-04-15T17:37:59.261Z,99804.13
2023-04-15T17:41:01.104Z,99807.44
2023-04-15T17:44:03.178Z,99804.22
2023-04-15T17:47:05.246Z,99805.06
2023-04-15T17:50:07.681Z,99806.34
2023-04-15T17:53:09.656Z,99813.97
2023-04-15T17:56:11.476Z,99818.13
2023-04-15T17:59:13.426Z,99824.44
2023-04-15T18:02:15.535Z,99822.91
2023-04-15T18:05:19.824Z,99825.87
2023-04-15T18:08:21.745Z,99826.69
2023-04-15T18:11:23.615Z,99829.50
2023-04-15T18:14:34.300Z,99836.94
2023-04-15T18:17:37.010Z,99842.22
2023-04-15T18:20:39.114Z,99838.38
2023-04-15T18:23:41.112Z,99841.44
2023-04-15T18:26:42.982Z,99851.19
2023-04-15T18:29:44.840Z,99851.72
2023-04-15T18:32:46.743Z,99863.50
2023-04-15T18:35:50.049Z,99864.81
2023-04-15T18:38:52.104Z,99876.19
2023-04-15T18:41:54.384Z,99868.47
2023-04-15T18:44:56.315Z,99883.06
2023-04-15T18:47:58.201Z,99894.97
2023-04-15T18:51:00.151Z,99893.22
2023-04-15T18:54:02.008Z,99900.66
2023-04-15T18:57:04.144Z,99903.13
2023-04-15T19:00:06.485Z,99915.06
2023-04-15T19:03:08.426Z,99912.13
2023-04-15T19:06:10.413Z,99912.75
2023-04-15T19:09:12.381Z,99913.59
2023-04-15T19:12:14.345Z,99909.19
2023-04-15T19:15:16.193Z,99923.13
2023-04-15T19:18:18.213Z,99937.47
2023-04-15T19:21:20.103Z,99950.00
2023-04-15T19:24:22.336Z,99948.94
2023-04-15T19:27:24.238Z,99948.34
2023-04-15T19:30:26.294Z,99947.84
2023-04-15T19:33:31.423Z,99944.81
2023-04-15T19:36:33.480Z,99957.78
2023-04-15T19:39:35.489Z,99955.91
2023-04-15T19:42:37.373Z,99962.97
2023-04-15T19:45:39.218Z,99968.00
2023-04-15T19:48:41.232Z,99973.19
2023-04-15T19:51:43.107Z,99955.81
2023-04-15T19:54:44.939Z,99976.03
2023-04-15T19:57:47.032Z,99969.63
2023-04-15T20:00:48.883Z,99978.56
2023-04-15T20:03:52.692Z,99982.16
2023-04-15T20:06:55.764Z,99967.47
2023-04-15T20:09:57.648Z,99975.56
2023-04-15T20:12:59.543Z,99987.94
2023-04-15T20:16:01.411Z,99985.81
2023-04-15T20:19:08.636Z,99991.09
2023-04-15T20:22:10.571Z,99972.56
2023-04-15T20:25:12.533Z,99990.75
2023-04-15T20:28:15.978Z,99994.44
2023-04-15T20:31:17.867Z,99990.88
2023-04-15T20:34:19.770Z,99983.59
2023-04-15T20:37:22.246Z,99985.69
2023-04-15T20:40:24.164Z,99993.94
2023-04-15T20:43:26.285Z,100006.63
2023-04-15T20:46:28.255Z,99986.37
2023-04-15T20:49:32.818Z,100002.34
2023-04-15T20:52:34.713Z,100001.50
2023-04-15T20:55:36.579Z,100013.87
2023-04-15T20:58:38.804Z,100010.88
2023-04-15T21:01:40.895Z,100008.91
2023-04-15T21:04:42.788Z,100012.66
2023-04-15T21:07:44.701Z,100020.03
2023-04-15T21:10:46.596Z,100023.31
2023-04-15T21:13:48.521Z,100027.34
2023-04-15T21:16:50.460Z,100019.03
2023-04-15T21:19:52.505Z,100037.59
2023-04-15T21:22:54.376Z,100035.03
2023-04-15T21:25:56.579Z,100042.88
2023-04-15T21:28:58.465Z,100054.00
2023-04-15T21:32:00.590Z,100046.75
2023-04-15T21:35:02.465Z,100050.31
2023-04-15T21:38:04.391Z,100053.09
2023-04-15T21:41:09.716Z,100053.47
2023-04-15T21:44:13.255Z,100056.97
2023-04-15T21:47:16.615Z,100056.06
2023-04-15T21:50:18.697Z,100071.66
2023-04-15T21:53:20.580Z,100058.13
2023-04-15T21:56:24.408Z,100068.63
2023-04-15T21:59:27.179Z,100070.72
2023-04-15T22:02:29.307Z,100074.56
2023-04-15T22:05:31.292Z,100072.31
2023-04-15T22:08:38.526Z,100079.69
2023-04-15T22:11:43.431Z,100082.06
2023-04-15T22:14:45.396Z,100065.88
2023-04-15T22:17:47.322Z,100087.16
2023-04-15T22:20:49.245Z,100088.47
2023-04-15T22:23:51.288Z,100086.69
2023-04-15T22:26:53.112Z,100089.09
2023-04-15T22:29:55.005Z,100085.47
2023-04-15T22:32:56.923Z,100081.00
2023-04-15T22:35:58.874Z,100093.00
2023-04-15T22:39:00.992Z,100090.63
2023-04-15T22:42:03.249Z,100087.34
2023-04-15T22:45:05.576Z,100097.38
2023-04-15T22:48:07.487Z,100096.12
2023-04-15T22:51:09.348Z,100097.78
2023-04-15T22:54:11.275Z,100103.22
2023-04-15T22:57:13.102Z,100089.31
2023-04-15T23:00:14.948Z,100105.37
2023-04-15T23:03:16.927Z,100099.91
2023-04-15T23:06:19.529Z,100100.22
2023-04-15T23:09:21.491Z,100106.09
2023-04-15T23:12:23.470Z,100096.75
2023-04-15T23:15:25.536Z,100101.56
2023-04-15T23:18:27.657Z,100104.97
2023-04-15T23:21:29.537Z,100091.22
2023-04-15T23:24:31.466Z,100103.25
2023-04-15T23:27:33.312Z,100097.25
2023-04-15T23:30:35.126Z,100101.87
2023-04-15T23:33:38.232Z,100109.62
2023-04-15T23:36:40.496Z,100112.06
2023-04-15T23:39:42.436Z,100118.72
2023-04-15T23:42:44.416Z,100120.38
2023-04-15T23:45:46.347Z,100119.00
2023-04-15T23:48:49.102Z,100120.16
2023-04-15T23:51:51.125Z,100126.22
2023-04-15T23:54:52.945Z,100123.41
2023-04-15T23:57:54.841Z,100110.94
